createdAt,value
2019-01-11T00:00:26.259Z,1.17
2019-01-11T00:01:26.250Z,1.20
2019-01-11T00:02:26.283Z,1.20
2019-01-11T00:03:26.229Z,1.24
2019-01-11T00:04:26.216Z,1.24
2019-01-11T00:05:26.206Z,1.31
2019-01-11T00:06:26.212Z,1.26
2019-01-11T00:07:26.178Z,1.20
2019-01-11T00:08:26.193Z,1.18
2019-01-11T00:09:26.160Z,1.31
2019-01-11T00:10:26.150Z,1.21
2019-01-11T00:11:26.142Z,1.24
2019-01-11T00:12:26.138Z,1.28
2019-01-11T00:13:26.133Z,1.34
2019-01-11T00:14:26.103Z,1.29
2019-01-11T00:15:26.101Z,1.32
2019-01-11T00:16:26.081Z,1.24
2019-01-11T00:17:26.087Z,1.21
2019-01-11T00:18:26.098Z,1.26
2019-01-11T00:19:26.063Z,1.29
2019-01-11T00:20:26.043Z,1.29
2019-01-11T00:21:26.029Z,1.28
2019-01-11T00:22:26.020Z,1.28
2019-01-11T00:23:26.052Z,1.34
2019-01-11T00:24:26.006Z,1.34
2019-01-11T00:25:26.012Z,1.31
2019-01-11T00:26:25.976Z,1.32
2019-01-11T00:27:25.968Z,1.32
2019-01-11T00:28:25.953Z,1.32
2019-01-11T00:29:25.966Z,1.35
2019-01-11T00:30:25.954Z,1.39
2019-01-11T00:31:25.927Z,1.31
2019-01-11T00:32:25.914Z,1.32
2019-01-11T00:33:25.898Z,1.38
2019-01-11T00:34:25.894Z,1.42
2019-01-11T00:35:25.902Z,1.42
2019-01-11T00:36:25.864Z,1.38
2019-01-11T00:37:25.858Z,1.36
2019-01-11T00:38:25.857Z,1.42
2019-01-11T00:39:25.847Z,1.34
2019-01-11T00:40:25.859Z,1.36
2019-01-11T00:41:25.822Z,1.42
2019-01-11T00:42:25.814Z,1.36
2019-01-11T00:43:25.791Z,1.44
2019-01-11T00:44:25.785Z,1.43
2019-01-11T00:45:25.808Z,1.38
2019-01-11T00:46:25.757Z,1.38
2019-01-11T00:47:25.757Z,1.50
2019-01-11T00:48:25.739Z,1.43
2019-01-11T00:49:25.746Z,1.35
2019-01-11T00:50:25.732Z,1.44
2019-01-11T00:51:25.735Z,1.44
2019-01-11T00:52:25.701Z,1.35
2019-01-11T00:53:25.696Z,1.50
2019-01-11T00:54:25.679Z,1.50
2019-01-11T00:55:25.668Z,1.53
2019-01-11T00:56:25.692Z,1.39
2019-01-11T00:57:25.665Z,1.54
2019-01-11T00:58:25.630Z,1.49
2019-01-11T00:59:25.629Z,1.54
2019-01-11T01:00:25.607Z,1.52
2019-01-11T01:01:25.645Z,1.49
2019-01-11T01:02:25.590Z,1.38
2019-01-11T01:03:25.594Z,1.42
2019-01-11T01:04:25.584Z,1.53
2019-01-11T01:05:25.567Z,1.60
2019-01-11T01:06:25.542Z,1.56
2019-01-11T01:07:25.535Z,1.56
2019-01-11T01:08:30.539Z,1.50
2019-01-11T01:09:26.514Z,1.47
2019-01-11T01:10:25.498Z,1.53
2019-01-11T01:11:25.513Z,1.67
2019-01-11T01:12:25.485Z,1.46
2019-01-11T01:13:25.472Z,1.50
2019-01-11T01:14:25.490Z,1.52
2019-01-11T01:15:25.445Z,1.54
2019-01-11T01:16:25.442Z,1.49
2019-01-11T01:17:25.447Z,1.57
2019-01-11T01:18:25.418Z,1.60
2019-01-11T01:19:25.411Z,1.60
2019-01-11T01:20:25.423Z,1.67
2019-01-11T01:21:25.380Z,1.53
2019-01-11T01:22:25.375Z,1.61
2019-01-11T01:23:25.374Z,1.54
2019-01-11T01:24:25.353Z,1.61
2019-01-11T01:25:25.347Z,1.64
2019-01-11T01:26:25.678Z,1.60
2019-01-11T01:27:25.320Z,1.63
2019-01-11T01:28:25.316Z,1.64
2019-01-11T01:29:25.339Z,1.63
2019-01-11T01:30:25.291Z,1.63
2019-01-11T01:31:25.282Z,1.67
2019-01-11T01:32:25.291Z,1.57
2019-01-11T01:33:25.270Z,1.65
2019-01-11T01:34:25.245Z,1.64
2019-01-11T01:35:25.249Z,1.67
2019-01-11T01:36:25.224Z,1.68
2019-01-11T01:37:25.225Z,1.72
2019-01-11T01:38:25.235Z,1.74
2019-01-11T01:39:25.206Z,1.72
2019-01-11T01:40:25.193Z,1.71
2019-01-11T01:41:25.169Z,1.79
2019-01-11T01:42:25.156Z,1.70
2019-01-11T01:43:25.157Z,1.72
2019-01-11T01:44:25.164Z,1.68
2019-01-11T01:45:25.121Z,1.72
2019-01-11T01:46:25.123Z,1.68
2019-01-11T01:47:25.133Z,1.79
2019-01-11T01:48:25.088Z,1.70
2019-01-11T01:49:26.702Z,1.82
2019-01-11T01:50:25.100Z,1.82
2019-01-11T01:51:25.068Z,1.85
2019-01-11T01:52:25.052Z,1.83
2019-01-11T01:53:25.044Z,1.77
2019-01-11T01:54:25.034Z,1.81
2019-01-11T01:55:25.022Z,1.82
2019-01-11T01:56:25.030Z,1.82
2019-01-11T01:57:24.992Z,1.79
2019-01-11T01:58:24.985Z,1.75
2019-01-11T01:59:24.984Z,1.81
2019-01-11T02:00:24.965Z,1.82
2019-01-11T02:01:24.954Z,1.81
2019-01-11T02:02:24.984Z,1.82
2019-01-11T02:03:24.938Z,1.89
2019-01-11T02:04:24.943Z,1.89
2019-01-11T02:05:24.968Z,1.86
2019-01-11T02:06:24.932Z,1.89
2019-01-11T02:07:24.889Z,1.92
2019-01-11T02:08:24.906Z,1.86
2019-01-11T02:09:24.871Z,1.93
2019-01-11T02:10:24.855Z,1.88
2019-01-11T02:11:24.846Z,1.93
2019-01-11T02:12:24.866Z,1.92
2019-01-11T02:13:24.827Z,1.93
2019-01-11T02:14:24.837Z,1.90
2019-01-11T02:15:24.806Z,1.92
2019-01-11T02:16:24.795Z,1.89
2019-01-11T02:17:24.783Z,1.92
2019-01-11T02:18:24.780Z,1.88
2019-01-11T02:19:24.799Z,1.88
2019-01-11T02:20:24.746Z,2.02
2019-01-11T02:21:24.744Z,1.95
2019-01-11T02:22:24.727Z,2.04
2019-01-11T02:23:24.721Z,1.95
2019-01-11T02:24:24.721Z,2.01
2019-01-11T02:25:24.723Z,2.04
2019-01-11T02:26:24.678Z,2.04
2019-01-11T02:27:24.684Z,2.14
2019-01-11T02:28:24.729Z,2.01
2019-01-11T02:29:24.656Z,2.05
2019-01-11T02:30:24.637Z,2.07
2019-01-11T02:31:24.649Z,2.04
2019-01-11T02:32:24.623Z,2.04
2019-01-11T02:33:25.136Z,2.01
2019-01-11T02:34:24.620Z,2.22
2019-01-11T02:35:24.591Z,2.12
2019-01-11T02:36:24.604Z,2.19
2019-01-11T02:37:24.570Z,2.14
2019-01-11T02:38:24.551Z,2.09
2019-01-11T02:39:24.547Z,2.15
2019-01-11T02:40:24.529Z,2.14
2019-01-11T02:41:24.524Z,2.04
2019-01-11T02:42:24.542Z,2.19
2019-01-11T02:43:24.509Z,2.14
2019-01-11T02:44:24.491Z,2.19
2019-01-11T02:45:24.483Z,2.18
2019-01-11T02:46:24.480Z,2.14
2019-01-11T02:47:24.458Z,2.19
2019-01-11T02:48:24.474Z,2.25
2019-01-11T02:49:24.432Z,2.18
2019-01-11T02:50:24.421Z,2.27
2019-01-11T02:51:24.415Z,2.20
2019-01-11T02:52:24.412Z,2.20
2019-01-11T02:53:24.389Z,2.22
2019-01-11T02:54:24.409Z,2.27
2019-01-11T02:55:24.373Z,2.22
2019-01-11T02:56:24.364Z,2.20
2019-01-11T02:57:24.355Z,2.27
2019-01-11T02:58:24.353Z,2.25
2019-01-11T02:59:24.332Z,2.27
2019-01-11T03:00:24.330Z,2.22
2019-01-11T03:01:24.311Z,2.23
2019-01-11T03:02:24.301Z,2.23
2019-01-11T03:03:24.286Z,2.20
2019-01-11T03:04:24.305Z,2.32
2019-01-11T03:05:25.398Z,2.33
2019-01-11T03:06:24.253Z,2.29
2019-01-11T03:07:24.242Z,2.29
2019-01-11T03:08:24.237Z,2.26
2019-01-11T03:09:24.223Z,2.27
2019-01-11T03:10:24.235Z,2.33
2019-01-11T03:11:24.227Z,2.27
2019-01-11T03:12:24.194Z,2.30
2019-01-11T03:13:24.186Z,2.27
2019-01-11T03:14:24.165Z,2.30
2019-01-11T03:15:24.180Z,2.36
2019-01-11T03:16:24.154Z,2.30
2019-01-11T03:17:24.139Z,2.30
2019-01-11T03:18:24.130Z,2.27
2019-01-11T03:19:24.124Z,2.36
2019-01-11T03:20:24.112Z,2.32
2019-01-11T03:21:24.124Z,2.38
2019-01-11T03:22:24.099Z,2.38
2019-01-11T03:23:24.077Z,2.38
2019-01-11T03:24:24.069Z,2.32
2019-01-11T03:25:24.066Z,2.29
2019-01-11T03:26:24.048Z,2.40
2019-01-11T03:27:24.052Z,2.32
2019-01-11T03:28:24.019Z,2.30
2019-01-11T03:29:24.017Z,2.33
2019-01-11T03:30:24.006Z,2.40
2019-01-11T03:31:23.989Z,2.41
2019-01-11T03:32:23.981Z,2.32
2019-01-11T03:33:24.003Z,2.38
2019-01-11T03:34:23.974Z,2.36
2019-01-11T03:35:23.951Z,2.40
2019-01-11T03:36:23.936Z,2.37
2019-01-11T03:37:23.926Z,2.43
2019-01-11T03:38:23.919Z,2.44
2019-01-11T03:39:23.929Z,2.32
2019-01-11T03:40:23.893Z,2.43
2019-01-11T03:41:23.884Z,2.37
2019-01-11T03:42:23.868Z,2.40
2019-01-11T03:43:23.864Z,2.40
2019-01-11T03:44:23.849Z,2.47
2019-01-11T03:45:23.866Z,2.43
2019-01-11T03:46:23.822Z,2.44
2019-01-11T03:47:23.816Z,2.41
2019-01-11T03:48:23.827Z,2.44
2019-01-11T03:49:23.799Z,2.43
2019-01-11T03:50:23.782Z,2.51
2019-01-11T03:51:23.806Z,2.43
2019-01-11T03:52:23.766Z,2.53
2019-01-11T03:53:23.749Z,2.48
2019-01-11T03:54:23.743Z,2.50
2019-01-11T03:55:23.739Z,2.47
2019-01-11T03:56:23.736Z,2.47
2019-01-11T03:57:23.711Z,2.51
2019-01-11T03:58:23.699Z,2.47
2019-01-11T03:59:23.699Z,2.41
2019-01-11T04:00:23.679Z,2.51
2019-01-11T04:01:23.688Z,2.55
2019-01-11T04:02:23.667Z,2.48
2019-01-11T04:03:23.645Z,2.44
2019-01-11T04:04:23.640Z,2.48
2019-01-11T04:05:23.632Z,2.50
2019-01-11T04:06:23.651Z,2.59
2019-01-11T04:07:23.616Z,2.56
2019-01-11T04:08:23.603Z,2.56
2019-01-11T04:09:23.601Z,2.59
2019-01-11T04:10:23.566Z,2.61
2019-01-11T04:11:23.555Z,2.59
2019-01-11T04:12:23.575Z,2.56
2019-01-11T04:13:30.350Z,2.65
2019-01-11T04:14:24.529Z,2.58
2019-01-11T04:15:23.530Z,2.58
2019-01-11T04:16:23.502Z,2.58
2019-01-11T04:17:23.501Z,2.62
2019-01-11T04:18:23.515Z,2.68
2019-01-11T04:19:23.476Z,2.66
2019-01-11T04:20:23.457Z,2.63
2019-01-11T04:21:23.458Z,2.59
2019-01-11T04:22:23.443Z,2.66
2019-01-11T04:23:23.423Z,2.69
2019-01-11T04:24:23.431Z,2.69
2019-01-11T04:25:23.403Z,2.69
2019-01-11T04:26:23.399Z,2.65
2019-01-11T04:27:23.382Z,2.61
2019-01-11T04:28:23.382Z,2.76
2019-01-11T04:29:23.398Z,2.71
2019-01-11T04:30:23.370Z,2.68
2019-01-11T04:31:23.362Z,2.68
2019-01-11T04:32:23.338Z,2.69
2019-01-11T04:33:23.319Z,2.71
2019-01-11T04:34:23.307Z,2.77
2019-01-11T04:35:23.327Z,2.77
2019-01-11T04:36:23.298Z,2.74
2019-01-11T04:37:23.296Z,2.69
2019-01-11T04:38:23.288Z,2.71
2019-01-11T04:39:23.261Z,2.81
2019-01-11T04:40:23.268Z,2.73
2019-01-11T04:41:23.260Z,2.81
2019-01-11T04:42:23.233Z,2.79
2019-01-11T04:43:23.215Z,2.80
2019-01-11T04:44:23.203Z,2.80
2019-01-11T04:45:23.205Z,2.83
2019-01-11T04:46:23.196Z,2.86
2019-01-11T04:47:23.168Z,2.84
2019-01-11T04:48:23.168Z,2.89
2019-01-11T04:49:23.161Z,2.86
2019-01-11T04:50:23.148Z,2.89
2019-01-11T04:51:23.164Z,2.84
2019-01-11T04:52:23.124Z,2.86
2019-01-11T04:53:23.116Z,2.87
2019-01-11T04:54:23.139Z,3.01
2019-01-11T04:55:23.095Z,2.90
2019-01-11T04:56:23.074Z,2.90
2019-01-11T04:57:23.081Z,2.94
2019-01-11T04:58:23.055Z,3.01
2019-01-11T04:59:23.043Z,2.95
2019-01-11T05:00:23.037Z,2.97
2019-01-11T05:01:23.023Z,2.97
2019-01-11T05:02:23.039Z,2.95
2019-01-11T05:03:23.019Z,3.01
2019-01-11T05:04:23.004Z,2.99
2019-01-11T05:05:22.977Z,2.99
2019-01-11T05:06:22.982Z,3.04
2019-01-11T05:07:22.976Z,2.97
2019-01-11T05:08:22.960Z,2.95
2019-01-11T05:09:22.967Z,2.95
2019-01-11T05:10:22.939Z,3.01
2019-01-11T05:11:22.925Z,3.12
2019-01-11T05:12:22.933Z,3.10
2019-01-11T05:13:22.899Z,3.13
2019-01-11T05:14:22.904Z,3.20
2019-01-11T05:15:22.890Z,3.19
2019-01-11T05:16:22.868Z,3.10
2019-01-11T05:17:22.922Z,3.15
2019-01-11T05:18:22.846Z,3.20
2019-01-11T05:19:22.832Z,3.16
2019-01-11T05:20:22.837Z,3.20
2019-01-11T05:21:22.837Z,3.12
2019-01-11T05:22:22.835Z,3.08
2019-01-11T05:23:22.813Z,3.20
2019-01-11T05:24:22.781Z,3.16
2019-01-11T05:25:22.769Z,3.16
2019-01-11T05:26:22.761Z,3.23
2019-01-11T05:27:22.760Z,3.16
2019-01-11T05:28:22.769Z,3.22
2019-01-11T05:29:22.739Z,3.28
2019-01-11T05:30:22.724Z,3.23
2019-01-11T05:31:22.719Z,3.16
2019-01-11T05:32:22.707Z,3.20
2019-01-11T05:33:22.749Z,3.25
2019-01-11T05:34:22.733Z,3.31
2019-01-11T05:35:22.680Z,3.23
2019-01-11T05:36:22.665Z,3.23
2019-01-11T05:37:22.656Z,3.35
2019-01-11T05:38:22.641Z,3.33
2019-01-11T05:39:22.638Z,3.20
2019-01-11T05:40:22.660Z,3.28
2019-01-11T05:41:22.676Z,3.33
2019-01-11T05:42:22.623Z,3.30
2019-01-11T05:43:22.598Z,3.35
2019-01-11T05:44:22.580Z,3.42
2019-01-11T05:45:22.591Z,3.44
2019-01-11T05:46:22.557Z,3.42
2019-01-11T05:47:22.557Z,3.50
2019-01-11T05:48:22.538Z,3.44
2019-01-11T05:49:22.525Z,3.49
2019-01-11T05:50:24.371Z,3.49
2019-01-11T05:51:22.525Z,3.52
2019-01-11T05:52:22.501Z,3.49
2019-01-11T05:53:22.493Z,3.57
2019-01-11T05:54:22.472Z,3.62
2019-01-11T05:55:22.457Z,3.70
2019-01-11T05:56:22.447Z,3.68
2019-01-11T05:57:22.454Z,3.68
2019-01-11T05:58:22.448Z,3.62
2019-01-11T05:59:22.441Z,3.80
2019-01-11T06:00:22.406Z,3.74
2019-01-11T06:01:22.400Z,3.72
2019-01-11T06:02:22.410Z,3.75
2019-01-11T06:03:22.387Z,3.74
2019-01-11T06:04:22.370Z,3.82
2019-01-11T06:05:22.358Z,3.88
2019-01-11T06:06:22.340Z,3.90
2019-01-11T06:07:22.341Z,3.82
2019-01-11T06:08:22.350Z,3.86
2019-01-11T06:09:22.308Z,3.89
2019-01-11T06:10:22.299Z,3.95
2019-01-11T06:11:22.301Z,3.95
2019-01-11T06:12:22.288Z,3.95
2019-01-11T06:13:22.281Z,3.95
2019-01-11T06:14:22.282Z,4.07
2019-01-11T06:15:22.258Z,4.06
2019-01-11T06:16:22.243Z,4.06
2019-01-11T06:17:22.237Z,4.07
2019-01-11T06:18:22.265Z,4.07
2019-01-11T06:19:22.213Z,4.08
2019-01-11T06:20:22.218Z,4.14
2019-01-11T06:21:22.188Z,4.10
2019-01-11T06:22:22.175Z,4.14
2019-01-11T06:23:22.167Z,4.14
2019-01-11T06:24:22.164Z,4.11
2019-01-11T06:25:22.153Z,4.13
2019-01-11T06:26:22.164Z,4.17
2019-01-11T06:27:22.134Z,4.25
2019-01-11T06:28:22.110Z,4.28
2019-01-11T06:29:22.105Z,4.28
2019-01-11T06:30:22.132Z,4.29
2019-01-11T06:31:22.079Z,4.26
2019-01-11T06:32:22.068Z,4.29
2019-01-11T06:33:22.064Z,4.31
2019-01-11T06:34:22.058Z,4.25
2019-01-11T06:35:22.043Z,4.38
2019-01-11T06:36:22.071Z,4.43
2019-01-11T06:37:22.023Z,4.39
2019-01-11T06:38:22.011Z,4.38
2019-01-11T06:39:22.007Z,4.39
2019-01-11T06:40:21.997Z,4.43
2019-01-11T06:41:21.979Z,4.36
2019-01-11T06:42:21.993Z,4.47
2019-01-11T06:43:21.957Z,4.42
2019-01-11T06:44:22.064Z,4.42
2019-01-11T06:45:21.954Z,4.39
2019-01-11T06:46:21.923Z,4.31
2019-01-11T06:47:21.953Z,4.28
2019-01-11T06:48:21.932Z,4.28
2019-01-11T06:49:21.888Z,4.28
2019-01-11T06:50:21.885Z,4.31
2019-01-11T06:51:21.886Z,4.32
2019-01-11T06:52:21.880Z,4.28
2019-01-11T06:53:21.865Z,4.31
2019-01-11T06:54:21.877Z,4.31
2019-01-11T06:55:21.832Z,4.31
2019-01-11T06:56:21.837Z,4.28
2019-01-11T06:57:21.814Z,4.28
2019-01-11T06:58:21.805Z,4.28
2019-01-11T06:59:21.827Z,4.32
2019-01-11T07:00:21.780Z,4.39
2019-01-11T07:01:21.764Z,4.39
2019-01-11T07:02:22.410Z,4.42
2019-01-11T07:03:21.867Z,4.39
2019-01-11T07:04:21.732Z,4.42
2019-01-11T07:05:21.755Z,4.46
2019-01-11T07:06:21.750Z,4.47
2019-01-11T07:07:21.701Z,4.50
2019-01-11T07:08:21.708Z,4.46
2019-01-11T07:09:21.776Z,4.49
2019-01-11T07:10:21.701Z,4.47
2019-01-11T07:11:21.670Z,4.56
2019-01-11T07:12:21.658Z,4.50
2019-01-11T07:13:21.636Z,4.44
2019-01-11T07:14:21.632Z,4.59
2019-01-11T07:15:21.630Z,4.54
2019-01-11T07:16:21.665Z,4.50
2019-01-11T07:17:21.603Z,4.53
2019-01-11T07:18:21.638Z,4.59
2019-01-11T07:19:21.576Z,4.62
2019-01-11T07:20:21.577Z,4.61
2019-01-11T07:21:21.571Z,4.57
2019-01-11T07:22:21.578Z,4.59
2019-01-11T07:23:21.535Z,4.51
2019-01-11T07:24:21.527Z,4.57
2019-01-11T07:25:21.519Z,4.64
2019-01-11T07:26:21.507Z,4.67
2019-01-11T07:27:21.514Z,4.62
2019-01-11T07:28:21.612Z,4.71
2019-01-11T07:29:21.488Z,4.71
2019-01-11T07:30:21.465Z,4.65
2019-01-11T07:31:21.465Z,4.67
2019-01-11T07:32:21.440Z,4.68
2019-01-11T07:33:21.455Z,4.71
2019-01-11T07:34:21.418Z,4.74
2019-01-11T07:35:21.412Z,4.72
2019-01-11T07:36:21.419Z,4.77
2019-01-11T07:37:21.389Z,4.75
2019-01-11T07:38:21.411Z,4.83
2019-01-11T07:39:21.389Z,4.80
2019-01-11T07:40:21.363Z,4.87
2019-01-11T07:41:21.358Z,4.90
2019-01-11T07:42:21.342Z,4.88
2019-01-11T07:43:21.331Z,4.94
2019-01-11T07:44:21.357Z,4.93
2019-01-11T07:45:21.303Z,4.97
2019-01-11T07:46:21.296Z,4.87
2019-01-11T07:47:21.283Z,4.84
2019-01-11T07:48:21.283Z,4.93
2019-01-11T07:49:23.301Z,4.97
2019-01-11T07:50:21.272Z,4.97
2019-01-11T07:51:21.244Z,4.97
2019-01-11T07:52:21.233Z,5.04
2019-01-11T07:53:21.229Z,5.09
2019-01-11T07:54:21.261Z,5.04
2019-01-11T07:55:21.212Z,5.12
2019-01-11T07:56:21.196Z,5.12
2019-01-11T07:57:21.187Z,5.14
2019-01-11T07:58:21.181Z,5.14
2019-01-11T07:59:21.177Z,5.24
2019-01-11T08:00:21.185Z,5.26
2019-01-11T08:01:21.177Z,5.27
2019-01-11T08:02:21.140Z,5.23
2019-01-11T08:03:21.126Z,5.27
2019-01-11T08:04:21.126Z,5.37
2019-01-11T08:05:21.113Z,5.38
2019-01-11T08:06:21.132Z,5.38
2019-01-11T08:07:21.085Z,5.40
2019-01-11T08:08:21.087Z,5.41
2019-01-11T08:09:21.072Z,5.49
2019-01-11T08:10:21.057Z,5.42
2019-01-11T08:11:21.039Z,5.40
2019-01-11T08:12:21.066Z,5.40
2019-01-11T08:13:21.024Z,5.55
2019-01-11T08:14:21.059Z,5.48
2019-01-11T08:15:21.001Z,5.55
2019-01-11T08:16:20.994Z,5.55
2019-01-11T08:17:20.984Z,5.60
2019-01-11T08:18:20.982Z,5.65
2019-01-11T08:19:20.959Z,5.59
2019-01-11T08:20:20.966Z,5.63
2019-01-11T08:21:20.948Z,5.69
2019-01-11T08:22:20.929Z,5.65
2019-01-11T08:23:20.946Z,5.74
2019-01-11T08:24:20.912Z,5.70
2019-01-11T08:25:20.901Z,5.67
2019-01-11T08:26:20.898Z,5.70
2019-01-11T08:27:20.879Z,5.74
2019-01-11T08:28:20.866Z,5.77
2019-01-11T08:29:20.948Z,5.78
2019-01-11T08:30:20.939Z,5.83
2019-01-11T08:31:22.111Z,5.88
2019-01-11T08:32:20.829Z,5.93
2019-01-11T08:33:20.822Z,5.87
2019-01-11T08:34:20.810Z,5.88
2019-01-11T08:35:20.818Z,5.93
2019-01-11T08:36:20.790Z,5.93
2019-01-11T08:37:20.780Z,5.92
2019-01-11T08:38:20.771Z,5.92
2019-01-11T08:39:20.749Z,5.95
2019-01-11T08:40:20.755Z,5.90
2019-01-11T08:41:20.729Z,5.99
2019-01-11T08:42:20.719Z,5.88
2019-01-11T08:43:20.713Z,6.02
2019-01-11T08:44:20.707Z,6.05
2019-01-11T08:45:20.734Z,6.06
2019-01-11T08:46:20.680Z,6.10
2019-01-11T08:47:20.671Z,6.03
2019-01-11T08:48:20.660Z,5.98
2019-01-11T08:49:20.657Z,6.06
2019-01-11T08:50:20.642Z,6.06
2019-01-11T08:51:20.646Z,6.17
2019-01-11T08:52:20.617Z,6.16
2019-01-11T08:53:20.637Z,6.20
2019-01-11T08:54:20.598Z,6.13
2019-01-11T08:55:20.587Z,6.25
2019-01-11T08:56:20.600Z,6.19
2019-01-11T08:57:20.557Z,6.21
2019-01-11T08:58:20.556Z,6.33
2019-01-11T08:59:20.535Z,6.28
2019-01-11T09:00:20.529Z,6.28
2019-01-11T09:01:20.538Z,6.30
2019-01-11T09:02:20.558Z,6.33
2019-01-11T09:03:20.501Z,6.32
2019-01-11T09:04:20.490Z,6.28
2019-01-11T09:05:20.499Z,6.35
2019-01-11T09:06:20.475Z,6.27
2019-01-11T09:07:20.452Z,6.28
2019-01-11T09:08:20.446Z,6.30
2019-01-11T09:09:20.441Z,6.27
2019-01-11T09:10:22.977Z,6.35
2019-01-11T09:11:20.438Z,6.32
2019-01-11T09:12:20.398Z,6.33
2019-01-11T09:13:20.392Z,6.48
2019-01-11T09:14:20.392Z,6.45
2019-01-11T09:15:20.375Z,6.38
2019-01-11T09:16:20.713Z,6.38
2019-01-11T09:17:20.345Z,6.39
2019-01-11T09:18:20.343Z,6.50
2019-01-11T09:19:20.325Z,6.42
2019-01-11T09:20:20.355Z,6.43
2019-01-11T09:21:20.320Z,6.38
2019-01-11T09:22:20.344Z,6.40
2019-01-11T09:23:20.290Z,6.40
2019-01-11T09:24:20.312Z,6.48
2019-01-11T09:25:20.277Z,6.45
2019-01-11T09:26:20.268Z,6.42
2019-01-11T09:27:20.239Z,6.45
2019-01-11T09:28:20.254Z,6.45
2019-01-11T09:29:20.225Z,6.40
2019-01-11T09:30:20.226Z,6.51
2019-01-11T09:31:20.198Z,6.46
2019-01-11T09:32:20.191Z,6.54
2019-01-11T09:33:20.876Z,6.48
2019-01-11T09:34:20.184Z,6.51
2019-01-11T09:35:20.196Z,6.53
2019-01-11T09:36:20.157Z,6.54
2019-01-11T09:37:20.151Z,6.55
2019-01-11T09:38:20.163Z,6.57
2019-01-11T09:39:20.158Z,6.50
2019-01-11T09:40:20.101Z,6.58
2019-01-11T09:41:20.094Z,6.60
2019-01-11T09:42:20.085Z,6.57
2019-01-11T09:43:20.094Z,6.57
2019-01-11T09:44:20.070Z,6.54
2019-01-11T09:45:20.083Z,6.57
2019-01-11T09:46:20.129Z,6.55
2019-01-11T09:47:20.035Z,6.53
2019-01-11T09:48:20.043Z,6.53
2019-01-11T09:49:20.013Z,6.57
2019-01-11T09:50:20.026Z,6.57
2019-01-11T09:51:19.987Z,6.55
2019-01-11T09:52:19.984Z,6.53
2019-01-11T09:53:19.977Z,6.54
2019-01-11T09:54:19.966Z,6.60
2019-01-11T09:55:19.952Z,6.55
2019-01-11T09:56:19.951Z,6.54
2019-01-11T09:57:19.925Z,6.57
2019-01-11T09:58:19.914Z,6.54
2019-01-11T09:59:19.907Z,6.55
2019-01-11T10:00:19.901Z,6.55
2019-01-11T10:01:19.919Z,6.61
2019-01-11T10:02:19.879Z,6.57
2019-01-11T10:03:19.865Z,6.63
2019-01-11T10:04:19.859Z,6.55
2019-01-11T10:05:19.843Z,6.54
2019-01-11T10:06:19.835Z,6.61
2019-01-11T10:07:19.853Z,6.54
2019-01-11T10:08:19.814Z,6.54
2019-01-11T10:09:19.817Z,6.57
2019-01-11T10:10:19.788Z,6.54
2019-01-11T10:11:19.785Z,6.69
2019-01-11T10:12:19.793Z,6.54
2019-01-11T10:13:19.760Z,6.55
2019-01-11T10:14:19.749Z,6.68
2019-01-11T10:15:19.828Z,6.71
2019-01-11T10:16:19.732Z,6.57
2019-01-11T10:17:19.729Z,6.68
2019-01-11T10:18:19.729Z,6.68
2019-01-11T10:19:19.693Z,6.63
2019-01-11T10:20:19.687Z,6.65
2019-01-11T10:21:22.503Z,6.69
2019-01-11T10:22:19.670Z,6.68
2019-01-11T10:23:19.655Z,6.64
2019-01-11T10:24:19.672Z,6.68
2019-01-11T10:25:19.635Z,6.72
2019-01-11T10:26:19.613Z,6.68
2019-01-11T10:27:19.619Z,6.69
2019-01-11T10:28:19.605Z,6.65
2019-01-11T10:29:19.595Z,6.79
2019-01-11T10:30:19.618Z,6.72
2019-01-11T10:31:19.571Z,6.79
2019-01-11T10:32:19.606Z,6.76
2019-01-11T10:33:19.548Z,6.79
2019-01-11T10:34:19.532Z,6.81
2019-01-11T10:35:19.529Z,6.81
2019-01-11T10:36:19.552Z,6.82
2019-01-11T10:37:19.499Z,6.90
2019-01-11T10:38:19.487Z,6.87
2019-01-11T10:39:19.479Z,6.78
2019-01-11T10:40:19.525Z,6.79
2019-01-11T10:41:19.457Z,6.87
2019-01-11T10:42:19.468Z,6.86
2019-01-11T10:43:19.439Z,6.87
2019-01-11T10:44:19.430Z,6.93
2019-01-11T10:45:19.412Z,6.91
2019-01-11T10:46:19.404Z,6.90
2019-01-11T10:47:19.415Z,6.93
2019-01-11T10:48:19.389Z,6.91
2019-01-11T10:49:19.388Z,6.96
2019-01-11T10:50:19.364Z,7.00
2019-01-11T10:51:19.366Z,6.96
2019-01-11T10:52:19.390Z,7.01
2019-01-11T10:53:19.331Z,6.96
2019-01-11T10:54:19.324Z,6.91
2019-01-11T10:55:19.309Z,6.97
2019-01-11T10:56:19.303Z,7.05
2019-01-11T10:57:19.298Z,6.99
2019-01-11T10:58:19.288Z,6.99
2019-01-11T10:59:19.264Z,7.08
2019-01-11T11:00:19.255Z,7.04
2019-01-11T11:01:19.237Z,6.97
2019-01-11T11:02:19.250Z,7.00
2019-01-11T11:03:19.231Z,6.97
2019-01-11T11:04:19.216Z,7.00
2019-01-11T11:05:19.197Z,6.97
2019-01-11T11:06:19.187Z,6.97
2019-01-11T11:07:19.188Z,6.94
2019-01-11T11:08:19.169Z,6.99
2019-01-11T11:09:19.153Z,6.93
2019-01-11T11:10:19.154Z,6.91
2019-01-11T11:11:19.138Z,6.97
2019-01-11T11:12:19.143Z,6.91
2019-01-11T11:13:19.115Z,6.89
2019-01-11T11:14:19.111Z,7.01
2019-01-11T11:15:19.089Z,6.96
2019-01-11T11:16:19.159Z,7.00
2019-01-11T11:17:19.092Z,6.96
2019-01-11T11:18:19.054Z,6.97
2019-01-11T11:19:19.054Z,7.00
2019-01-11T11:20:19.037Z,7.04
2019-01-11T11:21:19.031Z,7.00
2019-01-11T11:22:19.040Z,7.05
2019-01-11T11:23:19.009Z,7.00
2019-01-11T11:24:18.997Z,7.04
2019-01-11T11:25:18.989Z,7.05
2019-01-11T11:26:18.969Z,7.01
2019-01-11T11:27:18.964Z,6.97
2019-01-11T11:28:19.003Z,7.04
2019-01-11T11:29:18.942Z,6.99
2019-01-11T11:30:18.929Z,7.04
2019-01-11T11:31:18.924Z,7.01
2019-01-11T11:32:18.913Z,7.00
2019-01-11T11:33:18.903Z,6.99
2019-01-11T11:34:18.917Z,7.01
2019-01-11T11:35:18.871Z,6.97
2019-01-11T11:36:18.862Z,7.01
2019-01-11T11:37:18.862Z,6.91
2019-01-11T11:38:18.844Z,6.91
2019-01-11T11:39:18.855Z,6.96
2019-01-11T11:40:18.842Z,6.97
2019-01-11T11:41:18.831Z,6.97
2019-01-11T11:42:18.820Z,6.91
2019-01-11T11:43:18.784Z,6.94
2019-01-11T11:44:18.780Z,7.00
2019-01-11T11:45:18.784Z,6.97
2019-01-11T11:46:18.823Z,7.01
2019-01-11T11:47:18.775Z,7.05
2019-01-11T11:48:18.731Z,7.09
2019-01-11T11:49:18.720Z,7.05
2019-01-11T11:50:18.713Z,7.04
2019-01-11T11:51:18.712Z,7.09
2019-01-11T11:52:18.725Z,7.04
2019-01-11T11:53:18.680Z,7.11
2019-01-11T11:54:18.673Z,7.01
2019-01-11T11:55:18.657Z,7.04
2019-01-11T11:56:18.649Z,7.05
2019-01-11T11:57:18.637Z,7.01
2019-01-11T11:58:18.638Z,7.04
2019-01-11T11:59:18.629Z,7.00
2019-01-11T12:00:18.610Z,7.01
2019-01-11T12:01:18.600Z,7.05
2019-01-11T12:02:19.430Z,7.05
2019-01-11T12:03:18.591Z,7.04
2019-01-11T12:04:18.556Z,7.04
2019-01-11T12:05:18.548Z,7.07
2019-01-11T12:06:18.543Z,6.99
2019-01-11T12:07:18.534Z,6.89
2019-01-11T12:08:18.520Z,6.91
2019-01-11T12:09:18.536Z,6.99
2019-01-11T12:10:18.497Z,6.90
2019-01-11T12:11:18.491Z,6.94
2019-01-11T12:12:18.485Z,6.93
2019-01-11T12:13:18.483Z,6.87
2019-01-11T12:14:18.476Z,6.81
2019-01-11T12:15:18.473Z,6.83
2019-01-11T12:16:18.443Z,6.90
2019-01-11T12:17:18.419Z,6.81
2019-01-11T12:18:18.406Z,6.87
2019-01-11T12:19:18.402Z,6.93
2019-01-11T12:20:18.390Z,6.89
2019-01-11T12:21:18.402Z,6.86
2019-01-11T12:22:18.372Z,6.93
2019-01-11T12:23:18.365Z,6.94
2019-01-11T12:24:18.343Z,6.86
2019-01-11T12:25:18.341Z,6.90
2019-01-11T12:26:18.367Z,6.94
2019-01-11T12:27:18.313Z,6.91
2019-01-11T12:28:18.332Z,6.96
2019-01-11T12:29:18.298Z,6.93
2019-01-11T12:30:18.293Z,6.96
2019-01-11T12:31:18.288Z,6.99
2019-01-11T12:32:19.706Z,7.04
2019-01-11T12:33:18.258Z,6.99
2019-01-11T12:34:18.240Z,6.99
2019-01-11T12:35:18.235Z,7.00
2019-01-11T12:36:18.225Z,7.00
2019-01-11T12:37:18.203Z,7.01
2019-01-11T12:38:18.240Z,7.01
2019-01-11T12:39:18.185Z,6.96
2019-01-11T12:40:18.178Z,7.09
2019-01-11T12:41:18.159Z,6.93
2019-01-11T12:42:18.162Z,6.96
2019-01-11T12:43:18.148Z,6.94
2019-01-11T12:44:18.181Z,6.94
2019-01-11T12:45:18.123Z,6.89
2019-01-11T12:46:18.164Z,6.94
2019-01-11T12:47:18.128Z,6.93
2019-01-11T12:48:18.091Z,6.81
2019-01-11T12:49:18.079Z,6.97
2019-01-11T12:50:18.124Z,6.94
2019-01-11T12:51:18.062Z,6.96
2019-01-11T12:52:18.053Z,6.97
2019-01-11T12:53:18.043Z,6.99
2019-01-11T12:54:18.029Z,7.04
2019-01-11T12:55:18.025Z,7.12
2019-01-11T12:56:18.030Z,7.08
2019-01-11T12:57:18.029Z,7.09
2019-01-11T12:58:17.978Z,7.04
2019-01-11T12:59:17.976Z,7.00
2019-01-11T13:00:17.976Z,7.04
2019-01-11T13:01:17.953Z,7.04
2019-01-11T13:02:17.984Z,7.04
2019-01-11T13:03:17.950Z,7.00
2019-01-11T13:04:18.831Z,7.05
2019-01-11T13:05:17.997Z,7.00
2019-01-11T13:06:17.897Z,6.99
2019-01-11T13:07:17.889Z,7.05
2019-01-11T13:08:17.923Z,6.96
2019-01-11T13:09:17.872Z,7.04
2019-01-11T13:10:17.854Z,7.01
2019-01-11T13:11:17.848Z,7.05
2019-01-11T13:12:17.828Z,6.99
2019-01-11T13:13:17.818Z,7.04
2019-01-11T13:14:17.840Z,6.96
2019-01-11T13:15:17.797Z,7.04
2019-01-11T13:16:17.797Z,7.00
2019-01-11T13:17:17.778Z,6.99
2019-01-11T13:18:17.771Z,6.99